sensor_id;sensor_type;location;lat;lon;timestamp;P1;durP1;ratioP1;P2;durP2;ratioP2
21162;SDS011;10739;52.198;20.908;2022-08-19T00:01:38;14.40;;;9.65;;
21162;SDS011;10739;52.198;20.908;2022-08-19T00:04:09;24.27;;;10.85;;
21162;SDS011;10739;52.198;20.908;2022-08-19T00:06:38;14.52;;;10.80;;
21162;SDS011;10739;52.198;20.908;2022-08-19T00:09:08;18.85;;;10.02;;
21162;SDS011;10739;52.198;20.908;2022-08-19T00:11:37;19.20;;;10.68;;
21162;SDS011;10739;52.198;20.908;2022-08-19T00:14:06;17.83;;;10.70;;
21162;SDS011;10739;52.198;20.908;2022-08-19T00:16:37;14.38;;;10.57;;
21162;SDS011;10739;52.198;20.908;2022-08-19T00:19:06;19.70;;;10.60;;
21162;SDS011;10739;52.198;20.908;2022-08-19T00:21:33;15.00;;;10.65;;
21162;SDS011;10739;52.198;20.908;2022-08-19T00:24:03;17.50;;;11.43;;
21162;SDS011;10739;52.198;20.908;2022-08-19T00:26:30;16.02;;;11.00;;
21162;SDS011;10739;52.198;20.908;2022-08-19T00:28:57;17.80;;;10.75;;
21162;SDS011;10739;52.198;20.908;2022-08-19T00:31:27;17.23;;;11.25;;
21162;SDS011;10739;52.198;20.908;2022-08-19T00:33:54;13.82;;;11.60;;
21162;SDS011;10739;52.198;20.908;2022-08-19T00:36:20;14.57;;;11.02;;
21162;SDS011;10739;52.198;20.908;2022-08-19T00:38:46;15.68;;;11.40;;
21162;SDS011;10739;52.198;20.908;2022-08-19T00:41:13;17.23;;;10.55;;
21162;SDS011;10739;52.198;20.908;2022-08-19T00:43:43;13.13;;;10.13;;
21162;SDS011;10739;52.198;20.908;2022-08-19T00:46:47;17.67;;;10.80;;
21162;SDS011;10739;52.198;20.908;2022-08-19T00:49:19;18.88;;;11.07;;
21162;SDS011;10739;52.198;20.908;2022-08-19T00:51:53;16.73;;;10.85;;
21162;SDS011;10739;52.198;20.908;2022-08-19T00:54:28;13.98;;;10.63;;
21162;SDS011;10739;52.198;20.908;2022-08-19T00:56:57;17.80;;;10.75;;
21162;SDS011;10739;52.198;20.908;2022-08-19T00:59:25;20.02;;;11.05;;
21162;SDS011;10739;52.198;20.908;2022-08-19T01:01:54;14.70;;;10.07;;
21162;SDS011;10739;52.198;20.908;2022-08-19T01:04:20;13.43;;;11.13;;
21162;SDS011;10739;52.198;20.908;2022-08-19T01:06:46;16.25;;;10.95;;
21162;SDS011;10739;52.198;20.908;2022-08-19T01:09:13;13.38;;;11.77;;
21162;SDS011;10739;52.198;20.908;2022-08-19T01:11:40;20.13;;;11.20;;
21162;SDS011;10739;52.198;20.908;2022-08-19T01:14:09;13.75;;;10.90;;
21162;SDS011;10739;52.198;20.908;2022-08-19T01:16:37;15.52;;;11.07;;
21162;SDS011;10739;52.198;20.908;2022-08-19T01:19:19;14.43;;;11.20;;
21162;SDS011;10739;52.198;20.908;2022-08-19T01:24:48;17.23;;;11.57;;
21162;SDS011;10739;52.198;20.908;2022-08-19T01:27:17;17.48;;;11.07;;
21162;SDS011;10739;52.198;20.908;2022-08-19T01:29:44;21.23;;;11.43;;
21162;SDS011;10739;52.198;20.908;2022-08-19T01:32:12;14.55;;;11.00;;
21162;SDS011;10739;52.198;20.908;2022-08-19T01:34:41;13.18;;;10.20;;
21162;SDS011;10739;52.198;20.908;2022-08-19T01:37:13;14.48;;;10.93;;
21162;SDS011;10739;52.198;20.908;2022-08-19T01:39:40;14.98;;;11.00;;
21162;SDS011;10739;52.198;20.908;2022-08-19T01:42:08;16.02;;;11.25;;
21162;SDS011;10739;52.198;20.908;2022-08-19T01:44:38;18.60;;;11.25;;
21162;SDS011;10739;52.198;20.908;2022-08-19T01:47:06;22.33;;;10.50;;
21162;SDS011;10739;52.198;20.908;2022-08-19T01:49:34;17.58;;;11.10;;
21162;SDS011;10739;52.198;20.908;2022-08-19T01:52:02;15.07;;;10.43;;
21162;SDS011;10739;52.198;20.908;2022-08-19T01:54:31;18.80;;;10.25;;
21162;SDS011;10739;52.198;20.908;2022-08-19T01:56:59;12.55;;;9.93;;
21162;SDS011;10739;52.198;20.908;2022-08-19T01:59:32;15.60;;;10.65;;
21162;SDS011;10739;52.198;20.908;2022-08-19T02:02:02;14.75;;;11.10;;
21162;SDS011;10739;52.198;20.908;2022-08-19T02:04:32;14.02;;;10.27;;
21162;SDS011;10739;52.198;20.908;2022-08-19T02:06:59;23.45;;;11.30;;
21162;SDS011;10739;52.198;20.908;2022-08-19T02:09:26;20.00;;;11.27;;
21162;SDS011;10739;52.198;20.908;2022-08-19T02:11:52;21.75;;;10.20;;
21162;SDS011;10739;52.198;20.908;2022-08-19T02:14:18;17.23;;;10.82;;
21162;SDS011;10739;52.198;20.908;2022-08-19T02:16:44;18.77;;;11.57;;
21162;SDS011;10739;52.198;20.908;2022-08-19T02:19:10;15.95;;;10.52;;
21162;SDS011;10739;52.198;20.908;2022-08-19T02:21:36;18.15;;;11.57;;
21162;SDS011;10739;52.198;20.908;2022-08-19T02:24:03;18.85;;;11.27;;
21162;SDS011;10739;52.198;20.908;2022-08-19T02:26:29;18.95;;;11.55;;
21162;SDS011;10739;52.198;20.908;2022-08-19T02:28:57;23.45;;;10.98;;
21162;SDS011;10739;52.198;20.908;2022-08-19T02:31:24;22.00;;;11.13;;
21162;SDS011;10739;52.198;20.908;2022-08-19T02:33:53;13.27;;;10.82;;
21162;SDS011;10739;52.198;20.908;2022-08-19T02:36:21;15.90;;;11.55;;
21162;SDS011;10739;52.198;20.908;2022-08-19T02:38:50;19.40;;;11.05;;
21162;SDS011;10739;52.198;20.908;2022-08-19T02:41:17;18.45;;;11.10;;
21162;SDS011;10739;52.198;20.908;2022-08-19T02:43:47;14.85;;;11.52;;
21162;SDS011;10739;52.198;20.908;2022-08-19T02:48:59;14.40;;;11.35;;
21162;SDS011;10739;52.198;20.908;2022-08-19T02:51:34;17.50;;;12.30;;
21162;SDS011;10739;52.198;20.908;2022-08-19T02:54:05;16.70;;;12.20;;
21162;SDS011;10739;52.198;20.908;2022-08-19T02:56:34;15.63;;;12.52;;
21162;SDS011;10739;52.198;20.908;2022-08-19T02:59:02;19.77;;;12.23;;
21162;SDS011;10739;52.198;20.908;2022-08-19T03:01:33;20.55;;;12.55;;
21162;SDS011;10739;52.198;20.908;2022-08-19T03:04:02;17.08;;;11.60;;
21162;SDS011;10739;52.198;20.908;2022-08-19T03:06:30;17.73;;;12.32;;
21162;SDS011;10739;52.198;20.908;2022-08-19T03:09:01;17.02;;;12.50;;
21162;SDS011;10739;52.198;20.908;2022-08-19T03:11:28;18.73;;;12.73;;
21162;SDS011;10739;52.198;20.908;2022-08-19T03:13:57;19.58;;;12.50;;
21162;SDS011;10739;52.198;20.908;2022-08-19T03:16:26;17.70;;;12.40;;
21162;SDS011;10739;52.198;20.908;2022-08-19T03:18:56;16.85;;;11.77;;
21162;SDS011;10739;52.198;20.908;2022-08-19T03:21:26;17.17;;;13.00;;
21162;SDS011;10739;52.198;20.908;2022-08-19T03:23:57;20.58;;;12.52;;
21162;SDS011;10739;52.198;20.908;2022-08-19T03:26:26;19.58;;;12.60;;
21162;SDS011;10739;52.198;20.908;2022-08-19T03:28:53;20.85;;;11.88;;
21162;SDS011;10739;52.198;20.908;2022-08-19T03:31:20;14.27;;;11.23;;
21162;SDS011;10739;52.198;20.908;2022-08-19T03:33:48;18.27;;;12.07;;
21162;SDS011;10739;52.198;20.908;2022-08-19T03:36:17;19.25;;;11.57;;
21162;SDS011;10739;52.198;20.908;2022-08-19T03:38:55;18.00;;;12.40;;
21162;SDS011;10739;52.198;20.908;2022-08-19T03:41:25;16.13;;;12.15;;
21162;SDS011;10739;52.198;20.908;2022-08-19T03:46:34;23.38;;;11.80;;
21162;SDS011;10739;52.198;20.908;2022-08-19T03:49:02;19.95;;;11.18;;
21162;SDS011;10739;52.198;20.908;2022-08-19T03:51:34;16.05;;;12.05;;
21162;SDS011;10739;52.198;20.908;2022-08-19T03:54:04;17.65;;;11.18;;
21162;SDS011;10739;52.198;20.908;2022-08-19T03:56:35;16.38;;;12.55;;
21162;SDS011;10739;52.198;20.908;2022-08-19T03:59:05;20.15;;;12.23;;
21162;SDS011;10739;52.198;20.908;2022-08-19T04:01:35;20.73;;;12.38;;
21162;SDS011;10739;52.198;20.908;2022-08-19T04:04:02;22.30;;;12.43;;
21162;SDS011;10739;52.198;20.908;2022-08-19T04:06:30;20.55;;;12.38;;
21162;SDS011;10739;52.198;20.908;2022-08-19T04:09:00;19.05;;;11.90;;
21162;SDS011;10739;52.198;20.908;2022-08-19T04:11:31;17.35;;;12.95;;
21162;SDS011;10739;52.198;20.908;2022-08-19T04:14:12;17.52;;;13.73;;
21162;SDS011;10739;52.198;20.908;2022-08-19T04:16:43;15.75;;;12.52;;
21162;SDS011;10739;52.198;20.908;2022-08-19T04:19:12;17.25;;;12.52;;
21162;SDS011;10739;52.198;20.908;2022-08-19T04:21:42;17.95;;;12.48;;
21162;SDS011;10739;52.198;20.908;2022-08-19T04:24:12;19.53;;;12.07;;
21162;SDS011;10739;52.198;20.908;2022-08-19T04:26:39;19.98;;;12.90;;
21162;SDS011;10739;52.198;20.908;2022-08-19T04:29:08;16.25;;;12.30;;
21162;SDS011;10739;52.198;20.908;2022-08-19T04:31:41;22.33;;;12.43;;
21162;SDS011;10739;52.198;20.908;2022-08-19T04:34:10;20.95;;;12.20;;
21162;SDS011;10739;52.198;20.908;2022-08-19T04:36:42;18.70;;;11.65;;
21162;SDS011;10739;52.198;20.908;2022-08-19T04:39:14;21.95;;;12.15;;
21162;SDS011;10739;52.198;20.908;2022-08-19T04:41:43;16.00;;;11.55;;
21162;SDS011;10739;52.198;20.908;2022-08-19T04:44:29;21.45;;;12.27;;
21162;SDS011;10739;52.198;20.908;2022-08-19T04:47:01;18.20;;;11.77;;
21162;SDS011;10739;52.198;20.908;2022-08-19T04:49:30;18.40;;;11.27;;
21162;SDS011;10739;52.198;20.908;2022-08-19T04:51:56;25.15;;;11.80;;
21162;SDS011;10739;52.198;20.908;2022-08-19T04:54:23;20.52;;;12.57;;
21162;SDS011;10739;52.198;20.908;2022-08-19T04:56:51;16.30;;;12.13;;
21162;SDS011;10739;52.198;20.908;2022-08-19T04:59:19;20.45;;;11.90;;
21162;SDS011;10739;52.198;20.908;2022-08-19T05:01:46;32.65;;;12.45;;
21162;SDS011;10739;52.198;20.908;2022-08-19T05:04:15;21.27;;;11.52;;
21162;SDS011;10739;52.198;20.908;2022-08-19T05:06:46;16.98;;;11.32;;
21162;SDS011;10739;52.198;20.908;2022-08-19T05:09:15;21.25;;;11.80;;
21162;SDS011;10739;52.198;20.908;2022-08-19T05:11:42;14.65;;;11.65;;
21162;SDS011;10739;52.198;20.908;2022-08-19T05:14:09;16.30;;;11.82;;
21162;SDS011;10739;52.198;20.908;2022-08-19T05:16:38;17.02;;;11.75;;
21162;SDS011;10739;52.198;20.908;2022-08-19T05:19:05;18.95;;;13.07;;
21162;SDS011;10739;52.198;20.908;2022-08-19T05:21:50;14.30;;;11.13;;
21162;SDS011;10739;52.198;20.908;2022-08-19T05:24:35;18.58;;;12.05;;
21162;SDS011;10739;52.198;20.908;2022-08-19T05:27:02;21.23;;;11.50;;
21162;SDS011;10739;52.198;20.908;2022-08-19T05:29:31;20.30;;;11.88;;
21162;SDS011;10739;52.198;20.908;2022-08-19T05:32:05;24.52;;;11.65;;
21162;SDS011;10739;52.198;20.908;2022-08-19T05:34:35;20.00;;;11.55;;
21162;SDS011;10739;52.198;20.908;2022-08-19T05:37:06;20.35;;;11.38;;
21162;SDS011;10739;52.198;20.908;2022-08-19T05:39:34;25.15;;;11.63;;
21162;SDS011;10739;52.198;20.908;2022-08-19T05:42:04;21.38;;;11.63;;
21162;SDS011;10739;52.198;20.908;2022-08-19T05:44:35;19.55;;;11.30;;
21162;SDS011;10739;52.198;20.908;2022-08-19T05:47:08;12.93;;;10.52;;
21162;SDS011;10739;52.198;20.908;2022-08-19T05:49:36;17.70;;;10.52;;
21162;SDS011;10739;52.198;20.908;2022-08-19T05:52:07;15.45;;;10.68;;
21162;SDS011;10739;52.198;20.908;2022-08-19T05:54:37;20.00;;;11.38;;
21162;SDS011;10739;52.198;20.908;2022-08-19T05:57:07;17.90;;;10.20;;
21162;SDS011;10739;52.198;20.908;2022-08-19T05:59:34;17.90;;;10.82;;
21162;SDS011;10739;52.198;20.908;2022-08-19T06:02:01;20.92;;;10.13;;
21162;SDS011;10739;52.198;20.908;2022-08-19T06:04:30;20.35;;;9.80;;
21162;SDS011;10739;52.198;20.908;2022-08-19T06:06:56;19.40;;;9.88;;
21162;SDS011;10739;52.198;20.908;2022-08-19T06:09:23;18.45;;;11.25;;
21162;SDS011;10739;52.198;20.908;2022-08-19T06:11:51;17.05;;;10.32;;
21162;SDS011;10739;52.198;20.908;2022-08-19T06:14:29;20.13;;;10.95;;
21162;SDS011;10739;52.198;20.908;2022-08-19T06:16:59;20.13;;;10.45;;
21162;SDS011;10739;52.198;20.908;2022-08-19T06:19:27;18.38;;;9.40;;
21162;SDS011;10739;52.198;20.908;2022-08-19T06:21:55;36.17;;;10.30;;
21162;SDS011;10739;52.198;20.908;2022-08-19T06:24:24;17.38;;;10.00;;
21162;SDS011;10739;52.198;20.908;2022-08-19T06:26:53;18.70;;;10.23;;
21162;SDS011;10739;52.198;20.908;2022-08-19T06:29:22;20.33;;;10.02;;
21162;SDS011;10739;52.198;20.908;2022-08-19T06:31:55;20.92;;;9.95;;
21162;SDS011;10739;52.198;20.908;2022-08-19T06:34:25;19.30;;;9.83;;
21162;SDS011;10739;52.198;20.908;2022-08-19T06:36:54;24.73;;;10.18;;
21162;SDS011;10739;52.198;20.908;2022-08-19T06:39:25;21.15;;;9.90;;
21162;SDS011;10739;52.198;20.908;2022-08-19T06:41:59;19.52;;;9.60;;
21162;SDS011;10739;52.198;20.908;2022-08-19T06:44:29;19.42;;;9.00;;
21162;SDS011;10739;52.198;20.908;2022-08-19T06:47:01;17.50;;;9.40;;
21162;SDS011;10739;52.198;20.908;2022-08-19T06:49:33;15.82;;;9.65;;
21162;SDS011;10739;52.198;20.908;2022-08-19T06:52:01;17.77;;;9.18;;
21162;SDS011;10739;52.198;20.908;2022-08-19T06:54:29;25.88;;;10.70;;
21162;SDS011;10739;52.198;20.908;2022-08-19T06:56:56;18.80;;;9.38;;
21162;SDS011;10739;52.198;20.908;2022-08-19T06:59:27;18.65;;;9.40;;
21162;SDS011;10739;52.198;20.908;2022-08-19T07:01:58;14.80;;;8.55;;
21162;SDS011;10739;52.198;20.908;2022-08-19T07:04:31;18.40;;;10.57;;
21162;SDS011;10739;52.198;20.908;2022-08-19T07:07:01;14.20;;;9.85;;
21162;SDS011;10739;52.198;20.908;2022-08-19T07:09:32;24.77;;;10.40;;
21162;SDS011;10739;52.198;20.908;2022-08-19T07:11:59;19.52;;;9.90;;
21162;SDS011;10739;52.198;20.908;2022-08-19T07:14:27;16.38;;;10.02;;
21162;SDS011;10739;52.198;20.908;2022-08-19T07:16:54;21.20;;;10.05;;
21162;SDS011;10739;52.198;20.908;2022-08-19T07:19:23;16.67;;;9.43;;
21162;SDS011;10739;52.198;20.908;2022-08-19T07:21:52;18.38;;;9.82;;
21162;SDS011;10739;52.198;20.908;2022-08-19T07:24:20;17.20;;;10.05;;
21162;SDS011;10739;52.198;20.908;2022-08-19T07:26:50;17.80;;;9.70;;
21162;SDS011;10739;52.198;20.908;2022-08-19T07:29:19;23.52;;;9.38;;
21162;SDS011;10739;52.198;20.908;2022-08-19T07:31:50;18.85;;;8.65;;
21162;SDS011;10739;52.198;20.908;2022-08-19T07:34:21;18.52;;;8.75;;
21162;SDS011;10739;52.198;20.908;2022-08-19T07:36:49;23.75;;;8.88;;
21162;SDS011;10739;52.198;20.908;2022-08-19T07:39:17;19.02;;;8.90;;
21162;SDS011;10739;52.198;20.908;2022-08-19T07:41:50;16.70;;;9.20;;
21162;SDS011;10739;52.198;20.908;2022-08-19T07:44:17;14.25;;;8.63;;
21162;SDS011;10739;52.198;20.908;2022-08-19T07:46:47;15.48;;;8.65;;
21162;SDS011;10739;52.198;20.908;2022-08-19T07:49:17;13.93;;;8.18;;
21162;SDS011;10739;52.198;20.908;2022-08-19T07:51:50;16.65;;;8.57;;
21162;SDS011;10739;52.198;20.908;2022-08-19T07:54:27;12.13;;;8.15;;
21162;SDS011;10739;52.198;20.908;2022-08-19T07:56:56;13.80;;;8.35;;
21162;SDS011;10739;52.198;20.908;2022-08-19T07:59:23;15.77;;;9.30;;
21162;SDS011;10739;52.198;20.908;2022-08-19T08:01:50;23.00;;;8.70;;
21162;SDS011;10739;52.198;20.908;2022-08-19T08:04:18;18.23;;;9.05;;
21162;SDS011;10739;52.198;20.908;2022-08-19T08:07:04;18.10;;;7.43;;
21162;SDS011;10739;52.198;20.908;2022-08-19T08:09:51;14.25;;;8.70;;
21162;SDS011;10739;52.198;20.908;2022-08-19T08:12:20;18.98;;;8.30;;
21162;SDS011;10739;52.198;20.908;2022-08-19T08:14:56;15.05;;;8.48;;
21162;SDS011;10739;52.198;20.908;2022-08-19T08:17:29;12.63;;;8.50;;
21162;SDS011;10739;52.198;20.908;2022-08-19T08:19:57;21.10;;;8.95;;
21162;SDS011;10739;52.198;20.908;2022-08-19T08:22:23;14.80;;;8.30;;
21162;SDS011;10739;52.198;20.908;2022-08-19T08:25:10;19.17;;;8.13;;
21162;SDS011;10739;52.198;20.908;2022-08-19T08:27:44;15.00;;;8.85;;
21162;SDS011;10739;52.198;20.908;2022-08-19T08:30:13;16.80;;;8.00;;
21162;SDS011;10739;52.198;20.908;2022-08-19T08:32:43;12.07;;;7.63;;
21162;SDS011;10739;52.198;20.908;2022-08-19T08:35:12;12.95;;;7.88;;
21162;SDS011;10739;52.198;20.908;2022-08-19T08:37:43;12.63;;;7.65;;
21162;SDS011;10739;52.198;20.908;2022-08-19T08:43:03;17.88;;;8.35;;
21162;SDS011;10739;52.198;20.908;2022-08-19T08:45:32;18.60;;;8.60;;
21162;SDS011;10739;52.198;20.908;2022-08-19T08:48:16;16.52;;;8.23;;
21162;SDS011;10739;52.198;20.908;2022-08-19T08:51:09;20.88;;;9.02;;
21162;SDS011;10739;52.198;20.908;2022-08-19T08:53:41;14.90;;;8.25;;
21162;SDS011;10739;52.198;20.908;2022-08-19T08:56:10;15.88;;;8.75;;
21162;SDS011;10739;52.198;20.908;2022-08-19T09:01:59;13.10;;;7.85;;
21162;SDS011;10739;52.198;20.908;2022-08-19T09:04:25;16.33;;;7.63;;
21162;SDS011;10739;52.198;20.908;2022-08-19T09:10:07;12.90;;;7.18;;
21162;SDS011;10739;52.198;20.908;2022-08-19T09:16:06;20.42;;;7.43;;
21162;SDS011;10739;52.198;20.908;2022-08-19T09:18:42;10.00;;;6.70;;
21162;SDS011;10739;52.198;20.908;2022-08-19T09:21:21;12.70;;;7.20;;
21162;SDS011;10739;52.198;20.908;2022-08-19T09:23:48;11.73;;;7.45;;
21162;SDS011;10739;52.198;20.908;2022-08-19T09:26:21;12.38;;;6.57;;
21162;SDS011;10739;52.198;20.908;2022-08-19T09:28:49;10.27;;;6.75;;
21162;SDS011;10739;52.198;20.908;2022-08-19T09:31:22;18.30;;;7.07;;
21162;SDS011;10739;52.198;20.908;2022-08-19T09:33:51;14.60;;;6.70;;
21162;SDS011;10739;52.198;20.908;2022-08-19T09:36:22;13.00;;;7.03;;
21162;SDS011;10739;52.198;20.908;2022-08-19T09:38:52;13.48;;;6.80;;
21162;SDS011;10739;52.198;20.908;2022-08-19T09:41:19;14.05;;;6.72;;
21162;SDS011;10739;52.198;20.908;2022-08-19T09:43:49;11.70;;;6.38;;
21162;SDS011;10739;52.198;20.908;2022-08-19T09:46:21;9.85;;;6.93;;
21162;SDS011;10739;52.198;20.908;2022-08-19T09:48:51;13.82;;;7.13;;
21162;SDS011;10739;52.198;20.908;2022-08-19T09:51:20;11.65;;;6.28;;
21162;SDS011;10739;52.198;20.908;2022-08-19T09:53:51;13.87;;;6.53;;
21162;SDS011;10739;52.198;20.908;2022-08-19T09:56:21;14.10;;;6.82;;
21162;SDS011;10739;52.198;20.908;2022-08-19T09:58:48;13.10;;;6.85;;
21162;SDS011;10739;52.198;20.908;2022-08-19T10:01:18;18.27;;;7.00;;
21162;SDS011;10739;52.198;20.908;2022-08-19T10:03:49;13.63;;;6.80;;
21162;SDS011;10739;52.198;20.908;2022-08-19T10:06:19;14.27;;;6.00;;
21162;SDS011;10739;52.198;20.908;2022-08-19T10:08:54;16.92;;;6.28;;
21162;SDS011;10739;52.198;20.908;2022-08-19T10:11:20;13.15;;;6.00;;
21162;SDS011;10739;52.198;20.908;2022-08-19T10:13:47;14.25;;;6.13;;
21162;SDS011;10739;52.198;20.908;2022-08-19T10:16:15;12.70;;;6.10;;
21162;SDS011;10739;52.198;20.908;2022-08-19T10:18:48;15.55;;;6.47;;
21162;SDS011;10739;52.198;20.908;2022-08-19T10:21:17;14.75;;;5.88;;
21162;SDS011;10739;52.198;20.908;2022-08-19T10:23:49;16.38;;;5.95;;
21162;SDS011;10739;52.198;20.908;2022-08-19T10:26:19;13.73;;;5.70;;
21162;SDS011;10739;52.198;20.908;2022-08-19T10:28:49;14.40;;;6.85;;
21162;SDS011;10739;52.198;20.908;2022-08-19T10:31:17;12.02;;;6.10;;
21162;SDS011;10739;52.198;20.908;2022-08-19T10:33:50;13.02;;;5.45;;
21162;SDS011;10739;52.198;20.908;2022-08-19T10:36:33;9.27;;;5.68;;
21162;SDS011;10739;52.198;20.908;2022-08-19T10:39:04;9.80;;;5.65;;
21162;SDS011;10739;52.198;20.908;2022-08-19T10:44:04;14.90;;;6.43;;
21162;SDS011;10739;52.198;20.908;2022-08-19T10:46:36;10.85;;;5.60;;
21162;SDS011;10739;52.198;20.908;2022-08-19T10:49:06;9.75;;;6.03;;
21162;SDS011;10739;52.198;20.908;2022-08-19T10:51:33;11.05;;;7.68;;
21162;SDS011;10739;52.198;20.908;2022-08-19T10:54:19;16.50;;;6.72;;
21162;SDS011;10739;52.198;20.908;2022-08-19T10:56:45;20.17;;;7.05;;
21162;SDS011;10739;52.198;20.908;2022-08-19T10:59:21;25.92;;;6.68;;
21162;SDS011;10739;52.198;20.908;2022-08-19T11:01:51;13.98;;;6.72;;
21162;SDS011;10739;52.198;20.908;2022-08-19T11:04:18;15.20;;;6.20;;
21162;SDS011;10739;52.198;20.908;2022-08-19T11:06:45;11.52;;;5.90;;
21162;SDS011;10739;52.198;20.908;2022-08-19T11:09:15;15.90;;;6.47;;
21162;SDS011;10739;52.198;20.908;2022-08-19T11:11:47;21.65;;;6.25;;
21162;SDS011;10739;52.198;20.908;2022-08-19T11:14:14;21.80;;;6.38;;
21162;SDS011;10739;52.198;20.908;2022-08-19T11:19:13;16.27;;;6.80;;
21162;SDS011;10739;52.198;20.908;2022-08-19T11:21:46;23.00;;;6.80;;
21162;SDS011;10739;52.198;20.908;2022-08-19T11:24:14;14.52;;;6.40;;
21162;SDS011;10739;52.198;20.908;2022-08-19T11:26:45;23.67;;;6.43;;
21162;SDS011;10739;52.198;20.908;2022-08-19T11:29:16;17.75;;;7.55;;
21162;SDS011;10739;52.198;20.908;2022-08-19T11:31:47;14.40;;;6.38;;
21162;SDS011;10739;52.198;20.908;2022-08-19T11:34:16;10.68;;;6.30;;
21162;SDS011;10739;52.198;20.908;2022-08-19T11:36:46;14.10;;;6.60;;
21162;SDS011;10739;52.198;20.908;2022-08-19T11:39:16;20.48;;;6.70;;
21162;SDS011;10739;52.198;20.908;2022-08-19T11:41:45;15.73;;;6.78;;
21162;SDS011;10739;52.198;20.908;2022-08-19T11:44:12;14.13;;;6.95;;
21162;SDS011;10739;52.198;20.908;2022-08-19T11:46:39;12.88;;;7.13;;
21162;SDS011;10739;52.198;20.908;2022-08-19T11:49:15;17.52;;;7.18;;
21162;SDS011;10739;52.198;20.908;2022-08-19T11:51:44;13.25;;;6.22;;
21162;SDS011;10739;52.198;20.908;2022-08-19T11:54:11;13.57;;;7.43;;
21162;SDS011;10739;52.198;20.908;2022-08-19T11:56:40;15.13;;;6.80;;
21162;SDS011;10739;52.198;20.908;2022-08-19T11:59:07;14.05;;;6.60;;
21162;SDS011;10739;52.198;20.908;2022-08-19T12:01:36;9.88;;;6.10;;
21162;SDS011;10739;52.198;20.908;2022-08-19T12:04:02;14.23;;;6.05;;
21162;SDS011;10739;52.198;20.908;2022-08-19T12:06:31;12.45;;;6.32;;
21162;SDS011;10739;52.198;20.908;2022-08-19T12:09:00;9.50;;;5.75;;
21162;SDS011;10739;52.198;20.908;2022-08-19T12:11:31;12.48;;;6.35;;
21162;SDS011;10739;52.198;20.908;2022-08-19T12:13:57;11.80;;;6.32;;
21162;SDS011;10739;52.198;20.908;2022-08-19T12:16:25;14.68;;;6.05;;
21162;SDS011;10739;52.198;20.908;2022-08-19T12:18:54;12.75;;;6.00;;
21162;SDS011;10739;52.198;20.908;2022-08-19T12:21:26;10.75;;;5.82;;
21162;SDS011;10739;52.198;20.908;2022-08-19T12:23:56;14.02;;;6.40;;
21162;SDS011;10739;52.198;20.908;2022-08-19T12:26:25;15.05;;;6.07;;
21162;SDS011;10739;52.198;20.908;2022-08-19T12:28:53;15.30;;;6.75;;
21162;SDS011;10739;52.198;20.908;2022-08-19T12:31:19;8.48;;;5.82;;
21162;SDS011;10739;52.198;20.908;2022-08-19T12:33:47;8.55;;;5.78;;
21162;SDS011;10739;52.198;20.908;2022-08-19T12:36:14;23.65;;;6.80;;
21162;SDS011;10739;52.198;20.908;2022-08-19T12:38:42;20.40;;;6.47;;
21162;SDS011;10739;52.198;20.908;2022-08-19T12:41:10;12.32;;;6.50;;
21162;SDS011;10739;52.198;20.908;2022-08-19T12:43:42;11.88;;;6.13;;
21162;SDS011;10739;52.198;20.908;2022-08-19T12:46:09;10.65;;;6.10;;
21162;SDS011;10739;52.198;20.908;2022-08-19T12:48:36;11.57;;;6.05;;
21162;SDS011;10739;52.198;20.908;2022-08-19T12:51:07;16.17;;;6.80;;
21162;SDS011;10739;52.198;20.908;2022-08-19T12:53:36;14.48;;;6.38;;
21162;SDS011;10739;52.198;20.908;2022-08-19T12:56:02;13.77;;;6.40;;
21162;SDS011;10739;52.198;20.908;2022-08-19T12:58:30;11.00;;;6.07;;
21162;SDS011;10739;52.198;20.908;2022-08-19T13:00:57;13.85;;;6.15;;
21162;SDS011;10739;52.198;20.908;2022-08-19T13:03:23;12.77;;;5.63;;
21162;SDS011;10739;52.198;20.908;2022-08-19T13:05:54;10.88;;;6.10;;
21162;SDS011;10739;52.198;20.908;2022-08-19T13:08:20;11.27;;;5.95;;
21162;SDS011;10739;52.198;20.908;2022-08-19T13:10:46;9.65;;;6.63;;
21162;SDS011;10739;52.198;20.908;2022-08-19T13:13:12;14.02;;;6.60;;
21162;SDS011;10739;52.198;20.908;2022-08-19T13:15:40;11.75;;;6.07;;
21162;SDS011;10739;52.198;20.908;2022-08-19T13:18:08;16.13;;;5.60;;
21162;SDS011;10739;52.198;20.908;2022-08-19T13:20:37;16.95;;;6.03;;
21162;SDS011;10739;52.198;20.908;2022-08-19T13:23:05;14.93;;;5.93;;
21162;SDS011;10739;52.198;20.908;2022-08-19T13:25:33;14.82;;;6.30;;
21162;SDS011;10739;52.198;20.908;2022-08-19T13:28:00;16.88;;;5.70;;
21162;SDS011;10739;52.198;20.908;2022-08-19T13:30:25;10.38;;;5.97;;
21162;SDS011;10739;52.198;20.908;2022-08-19T13:33:10;16.15;;;6.07;;
21162;SDS011;10739;52.198;20.908;2022-08-19T13:35:37;16.65;;;5.47;;
21162;SDS011;10739;52.198;20.908;2022-08-19T13:38:08;13.52;;;5.47;;
21162;SDS011;10739;52.198;20.908;2022-08-19T13:40:35;13.65;;;6.15;;
21162;SDS011;10739;52.198;20.908;2022-08-19T13:43:03;17.10;;;5.47;;
21162;SDS011;10739;52.198;20.908;2022-08-19T13:45:31;12.02;;;5.70;;
21162;SDS011;10739;52.198;20.908;2022-08-19T13:47:59;13.63;;;5.28;;
21162;SDS011;10739;52.198;20.908;2022-08-19T13:50:34;18.52;;;5.68;;
21162;SDS011;10739;52.198;20.908;2022-08-19T13:53:08;13.85;;;5.22;;
21162;SDS011;10739;52.198;20.908;2022-08-19T13:55:37;10.27;;;5.30;;
21162;SDS011;10739;52.198;20.908;2022-08-19T13:58:05;10.15;;;5.68;;
21162;SDS011;10739;52.198;20.908;2022-08-19T14:00:33;8.70;;;5.45;;
21162;SDS011;10739;52.198;20.908;2022-08-19T14:03:04;13.48;;;5.40;;
21162;SDS011;10739;52.198;20.908;2022-08-19T14:05:30;16.52;;;5.68;;
21162;SDS011;10739;52.198;20.908;2022-08-19T14:07:58;13.38;;;5.70;;
21162;SDS011;10739;52.198;20.908;2022-08-19T14:10:25;12.30;;;5.65;;
21162;SDS011;10739;52.198;20.908;2022-08-19T14:12:54;12.30;;;5.43;;
21162;SDS011;10739;52.198;20.908;2022-08-19T14:15:23;10.30;;;5.22;;
21162;SDS011;10739;52.198;20.908;2022-08-19T14:17:50;10.43;;;5.40;;
21162;SDS011;10739;52.198;20.908;2022-08-19T14:20:17;14.05;;;5.50;;
21162;SDS011;10739;52.198;20.908;2022-08-19T14:22:45;12.40;;;5.57;;
21162;SDS011;10739;52.198;20.908;2022-08-19T14:25:20;11.43;;;5.25;;
21162;SDS011;10739;52.198;20.908;2022-08-19T14:27:53;17.27;;;5.22;;
21162;SDS011;10739;52.198;20.908;2022-08-19T14:30:21;12.35;;;5.55;;
21162;SDS011;10739;52.198;20.908;2022-08-19T14:32:58;10.02;;;4.97;;
21162;SDS011;10739;52.198;20.908;2022-08-19T14:35:28;10.90;;;5.15;;
21162;SDS011;10739;52.198;20.908;2022-08-19T14:37:59;13.35;;;5.18;;
21162;SDS011;10739;52.198;20.908;2022-08-19T14:40:26;9.30;;;5.00;;
21162;SDS011;10739;52.198;20.908;2022-08-19T14:42:55;10.98;;;4.90;;
21162;SDS011;10739;52.198;20.908;2022-08-19T14:45:29;17.85;;;4.65;;
21162;SDS011;10739;52.198;20.908;2022-08-19T14:47:59;9.75;;;4.75;;
21162;SDS011;10739;52.198;20.908;2022-08-19T14:50:25;16.70;;;5.70;;
21162;SDS011;10739;52.198;20.908;2022-08-19T14:52:59;12.43;;;4.82;;
21162;SDS011;10739;52.198;20.908;2022-08-19T14:55:30;11.05;;;5.10;;
21162;SDS011;10739;52.198;20.908;2022-08-19T14:57:57;8.48;;;4.97;;